Home > Products > Valid Products > TAF

000
FTUS45 KBOI 211123
TAFMYL
TAF
KMYL 211123Z 2112/2212 VRB06KT 6SM -SHRA BR OVC015
     FM220600 VRB06KT 6SM BR VCSH SCT003 OVC015=



000
FTUS45 KBOI 211123
TAFJER
TAF
KJER 211123Z 2112/2212 21010KT 6SM -RA OVC030
     FM211500 24018G28KT P6SM -SHRA OVC020
     FM220900 25015G25KT P6SM VCSH SCT020 OVC050=



000
FTUS45 KBOI 211123
TAFBKE
TAF
KBKE 211123Z 2112/2212 VRB06KT P6SM -SHRA BKN050
     FM211600 31010KT P6SM -SHRA BKN035
     FM220000 31010KT P6SM VCSH BKN080=



000
FTUS45 KBOI 211123
TAFTWF
TAF
KTWF 211123Z 2112/2212 23015KT P6SM -RA OVC035
     FM211500 22022G32KT P6SM -SHRA OVC035
     FM220900 24015G25KT P6SM VCSH SCT030 OVC060=



000
FTUS45 KBOI 211123
TAFBNO
TAF
KBNO 211123Z 2112/2212 VRB06KT P6SM -SHRA BKN060 OVC080
     FM211400 22010G20KT P6SM VCSH BKN050=



000
FTUS45 KBOI 211123
TAFBOI
TAF
KBOI 211123Z 2112/2212 13012KT P6SM OVC040
     FM211500 33009KT P6SM VCSH SCT030 OVC070
     FM211900 33015G25KT P6SM -SHRA SCT030 OVC050
     FM220800 31010KT P6SM VCSH FEW020 OVC080=



000
FTUS45 KBOI 211123
TAFBNO
TAF
KBNO 211123Z 2112/2212 VRB06KT P6SM -SHRA BKN060 OVC080
     FM211400 22010G20KT P6SM VCSH BKN050=



000
FTUS45 KBOI 211123
TAFTWF
TAF
KTWF 211123Z 2112/2212 23015KT P6SM -RA OVC035
     FM211500 22022G32KT P6SM -SHRA OVC035
     FM220900 24015G25KT P6SM VCSH SCT030 OVC060=



000
FTUS45 KBOI 211123
TAFBOI
TAF
KBOI 211123Z 2112/2212 13012KT P6SM OVC040
     FM211500 33009KT P6SM VCSH SCT030 OVC070
     FM211900 33015G25KT P6SM -SHRA SCT030 OVC050
     FM220800 31010KT P6SM VCSH FEW020 OVC080=



000
FTUS45 KBOI 211123
TAFBKE
TAF
KBKE 211123Z 2112/2212 VRB06KT P6SM -SHRA BKN050
     FM211600 31010KT P6SM -SHRA BKN035
     FM220000 31010KT P6SM VCSH BKN080=



000
FTUS45 KBOI 211123
TAFJER
TAF
KJER 211123Z 2112/2212 21010KT 6SM -RA OVC030
     FM211500 24018G28KT P6SM -SHRA OVC020
     FM220900 25015G25KT P6SM VCSH SCT020 OVC050=



000
FTUS45 KBOI 211123
TAFMYL
TAF
KMYL 211123Z 2112/2212 VRB06KT 6SM -SHRA BR OVC015
     FM220600 VRB06KT 6SM BR VCSH SCT003 OVC015=



000
FTUS45 KBOI 210531
TAFBNO
TAF
KBNO 210531Z 2106/2206 VRB06KT 6SM -SHRA BR BKN050 OVC080
     FM210900 22010G20KT P6SM BKN050=



000
FTUS45 KBOI 210531
TAFBOI
TAF
KBOI 210531Z 2106/2206 13012KT 6SM -RA BR OVC035
     FM211500 33009KT P6SM VCSH SCT030 OVC070
     FM211900 33015G25KT P6SM -SHRA SCT030 OVC050=



000
FTUS45 KBOI 210531
TAFJER
TAF
KJER 210531Z 2106/2206 21010KT 6SM -RA OVC020
     FM211500 24018G28KT P6SM -SHRA OVC020
     FM220000 25015G25KT P6SM VCSH SCT020 OVC050=



000
FTUS45 KBOI 210531
TAFBKE
TAF
KBKE 210531Z 2106/2206 14012G22KT P6SM -SHRA BKN050 OVC080
     FM211600 31012KT P6SM VCSH SCT050 OVC080=



000
FTUS45 KBOI 210531
TAFMYL
TAF
KMYL 210531Z 2106/2206 VRB06KT 2SM -SN BR SCT004 OVC015
      TEMPO 2108/2112 4SM -RASN OVC015
     FM211200 VRB05KT 4SM RA BR OVC015
     FM212300 29008KT 6SM -SHRA BR OVC015=



000
FTUS45 KBOI 210531
TAFTWF
TAF
KTWF 210531Z 2106/2206 22018KT 6SM -RA BR OVC025
     FM211200 22018G28KT P6SM -SHRA OVC030
     FM220200 24015G25KT P6SM VCSH SCT030 OVC060=



000
FTUS45 KBOI 210531
TAFJER
TAF
KJER 210531Z 2106/2206 21010KT 6SM -RA OVC020
     FM211500 24018G28KT P6SM -SHRA OVC020
     FM220000 25015G25KT P6SM VCSH SCT020 OVC050=



000
FTUS45 KBOI 210531
TAFTWF
TAF
KTWF 210531Z 2106/2206 22018KT 6SM -RA BR OVC025
     FM211200 22018G28KT P6SM -SHRA OVC030
     FM220200 24015G25KT P6SM VCSH SCT030 OVC060=



000
FTUS45 KBOI 210531
TAFBOI
TAF
KBOI 210531Z 2106/2206 13012KT 6SM -RA BR OVC035
     FM211500 33009KT P6SM VCSH SCT030 OVC070
     FM211900 33015G25KT P6SM -SHRA SCT030 OVC050=



000
FTUS45 KBOI 210531
TAFBKE
TAF
KBKE 210531Z 2106/2206 14012G22KT P6SM -SHRA BKN050 OVC080
     FM211600 31012KT P6SM VCSH SCT050 OVC080=



000
FTUS45 KBOI 210531
TAFMYL
TAF
KMYL 210531Z 2106/2206 VRB06KT 2SM -SN BR SCT004 OVC015
      TEMPO 2108/2112 4SM -RASN OVC015
     FM211200 VRB05KT 4SM RA BR OVC015
     FM212300 29008KT 6SM -SHRA BR OVC015=



000
FTUS45 KBOI 210531
TAFBNO
TAF
KBNO 210531Z 2106/2206 VRB06KT 6SM -SHRA BR BKN050 OVC080
     FM210900 22010G20KT P6SM BKN050=



000
FTUS45 KBOI 210226 AAA
TAFMYL
TAF AMD
KMYL 210226Z 2102/2124 15010KT 1SM -SN BR SCT009 BKN015 OVC025
      TEMPO 2102/2106 4SM RASN BR BKN005 OVC020
     FM210600 14008KT 4SM RA BR OVC005
     FM212300 24008KT 6SM -SHRA BR OVC015=



000
FTUS45 KBOI 210226 AAA
TAFMYL
TAF AMD
KMYL 210226Z 2102/2124 15010KT 1SM -SN BR SCT009 BKN015 OVC025
      TEMPO 2102/2106 4SM RASN BR BKN005 OVC020
     FM210600 14008KT 4SM RA BR OVC005
     FM212300 24008KT 6SM -SHRA BR OVC015=



000
FTUS45 KBOI 210225 AAB
TAFBOI
TAF AMD
KBOI 210225Z 2102/2124 13012KT 5SM RA BR OVC025
     FM211500 33009KT P6SM VCSH SCT030 OVC070
     FM211900 33015G25KT P6SM SCT050 BKN100=



000
FTUS45 KBOI 210225 AAB
TAFBOI
TAF AMD
KBOI 210225Z 2102/2124 13012KT 5SM RA BR OVC025
     FM211500 33009KT P6SM VCSH SCT030 OVC070
     FM211900 33015G25KT P6SM SCT050 BKN100=



000
FTUS45 KBOI 210224 AAA
TAFJER
TAF AMD
KJER 210224Z 2102/2124 18006KT 6SM -RA OVC020
     FM211200 24011KT P6SM -SHRA OVC020
     FM211800 25019G29KT P6SM VCSH SCT020 OVC050=



000
FTUS45 KBOI 210223 AAA
TAFBNO
TAF AMD
KBNO 210223Z 2102/2124 VRB06KT 6SM -SHRA BR SCT009 OVC015
     FM210900 22010G20KT P6SM BKN050=



000
FTUS45 KBOI 202321
TAFMYL
TAF
KMYL 202321Z 2100/2124 15010KT 6SM -RASN BR SCT009 BKN025 OVC035
      TEMPO 2100/2104 2SM RASN BR BKN005 OVC020
     FM210400 14008KT 4SM RA BR OVC005
     FM212300 24008KT 6SM -SHRA BR OVC015=



000
FTUS45 KBOI 202321
TAFBKE
TAF
KBKE 202321Z 2100/2124 14010KT P6SM -SHRA OVC080
     FM210900 VRB05KT P6SM VCSH OVC080
     FM212000 34008KT P6SM SCT050 OVC080=



000
FTUS45 KBOI 202321
TAFTWF
TAF
KTWF 202321Z 2100/2124 19010KT P6SM VCSH OVC050
     FM210300 22018KT 6SM -RA OVC025
     FM211200 22018G28KT P6SM -SHRA OVC030
     FM211800 24020G30KT P6SM VCSH SCT030 OVC060=



000
FTUS45 KBOI 202321
TAFBOI
TAF
KBOI 202321Z 2100/2124 13012KT 4SM RA BR OVC020
     FM211500 33009KT P6SM VCSH SCT030 OVC070
     FM211900 33015G25KT P6SM SCT050 BKN100=



000
FTUS45 KBOI 202321
TAFJER
TAF
KJER 202321Z 2100/2124 VRB06KT P6SM VCSH OVC060
     FM210300 24010KT 6SM -RA OVC010
     FM211200 24011KT P6SM -SHRA OVC020
     FM211800 25019G29KT P6SM VCSH SCT020 OVC050=



000
FTUS45 KBOI 202321
TAFBNO
TAF
KBNO 202321Z 2100/2124 22010KT 6SM -SHRA BR SCT009 OVC015
     FM210300 VRB05KT P6SM VCSH OVC035
     FM210900 22010G20KT P6SM BKN050=



000
FTUS45 KBOI 202321
TAFBNO
TAF
KBNO 202321Z 2100/2124 22010KT 6SM -SHRA BR SCT009 OVC015
     FM210300 VRB05KT P6SM VCSH OVC035
     FM210900 22010G20KT P6SM BKN050=



000
FTUS45 KBOI 202321
TAFBOI
TAF
KBOI 202321Z 2100/2124 13012KT 4SM RA BR OVC020
     FM211500 33009KT P6SM VCSH SCT030 OVC070
     FM211900 33015G25KT P6SM SCT050 BKN100=



000
FTUS45 KBOI 202321
TAFBKE
TAF
KBKE 202321Z 2100/2124 14010KT P6SM -SHRA OVC080
     FM210900 VRB05KT P6SM VCSH OVC080
     FM212000 34008KT P6SM SCT050 OVC080=



000
FTUS45 KBOI 202321
TAFTWF
TAF
KTWF 202321Z 2100/2124 19010KT P6SM VCSH OVC050
     FM210300 22018KT 6SM -RA OVC025
     FM211200 22018G28KT P6SM -SHRA OVC030
     FM211800 24020G30KT P6SM VCSH SCT030 OVC060=



000
FTUS45 KBOI 202321
TAFMYL
TAF
KMYL 202321Z 2100/2124 15010KT 6SM -RASN BR SCT009 BKN025 OVC035
      TEMPO 2100/2104 2SM RASN BR BKN005 OVC020
     FM210400 14008KT 4SM RA BR OVC005
     FM212300 24008KT 6SM -SHRA BR OVC015=



000
FTUS45 KBOI 202321
TAFJER
TAF
KJER 202321Z 2100/2124 VRB06KT P6SM VCSH OVC060
     FM210300 24010KT 6SM -RA OVC010
     FM211200 24011KT P6SM -SHRA OVC020
     FM211800 25019G29KT P6SM VCSH SCT020 OVC050=



000
FTUS45 KBOI 202158 AAC
TAFMYL
TAF AMD
KMYL 202158Z 2022/2118 15010KT 6SM -RASN BR SCT009 OVC035
      TEMPO 2022/2102 2SM RASN BR BKN005 OVC020
     FM210600 14008KT 5SM -RA BR OVC005=



000
FTUS45 KBOI 202158 AAC
TAFMYL
TAF AMD
KMYL 202158Z 2022/2118 15010KT 6SM -RASN BR SCT009 OVC035
      TEMPO 2022/2102 2SM RASN BR BKN005 OVC020
     FM210600 14008KT 5SM -RA BR OVC005=



000
FTUS45 KBOI 201943 AAB
TAFMYL
TAF AMD
KMYL 201943Z 2020/2118 15010KT 2SM -SN BR BKN009 OVC020
     FM210600 14008KT 5SM -RA BR OVC005=



000
FTUS45 KBOI 201943 AAB
TAFMYL
TAF AMD
KMYL 201943Z 2020/2118 15010KT 2SM -SN BR BKN009 OVC020
     FM210600 14008KT 5SM -RA BR OVC005=



000
FTUS45 KBOI 201900 AAB
TAFJER
TAF AMD
KJER 201900Z 2019/2118 VRB06KT P6SM VCSH OVC040
     FM210300 24010KT 6SM -RA OVC010
     FM211200 24011KT P6SM -SHRA OVC020=



000
FTUS45 KBOI 201900 AAB
TAFJER
TAF AMD
KJER 201900Z 2019/2118 VRB06KT P6SM VCSH OVC040
     FM210300 24010KT 6SM -RA OVC010
     FM211200 24011KT P6SM -SHRA OVC020=



000
FTUS45 KBOI 201823 AAB
TAFBOI
TAF AMD
KBOI 201823Z 2018/2118 13011G17KT P6SM FEW035 OVC050
     FM202100 13012KT 5SM RA BR OVC015
     FM210500 13010KT P6SM -SHRA OVC030
     FM211500 VRB05KT P6SM VCSH OVC070=



000
FTUS45 KBOI 201823 AAB
TAFBOI
TAF AMD
KBOI 201823Z 2018/2118 13011G17KT P6SM FEW035 OVC050
     FM202100 13012KT 5SM RA BR OVC015
     FM210500 13010KT P6SM -SHRA OVC030
     FM211500 VRB05KT P6SM VCSH OVC070=



000
FTUS45 KBOI 201821 AAA
TAFMYL
TAF AMD
KMYL 201821Z 2018/2118 15010KT 2SM -SN BR SCT015 OVC020
     FM210600 14008KT 5SM -RA BR OVC005=



000
FTUS45 KBOI 201821 AAA
TAFMYL
TAF AMD
KMYL 201821Z 2018/2118 15010KT 2SM -SN BR SCT015 OVC020
     FM210600 14008KT 5SM -RA BR OVC005=



000
FTUS45 KBOI 201742 AAA
TAFJER
TAF AMD
KJER 201742Z 2018/2118 VRB06KT P6SM -SHRA BKN009 OVC015
     FM202100 21008KT P6SM VCSH OVC025
     FM210300 24010KT 6SM -RA OVC010
     FM211200 24011KT P6SM -SHRA OVC020=



000
FTUS45 KBOI 201740
TAFBNO
TAF
KBNO 201740Z 2018/2118 VRB05KT P6SM VCSH OVC040
     FM202000 22010KT 6SM -SHRA BR SCT009 OVC015
     FM210300 VRB05KT P6SM VCSH OVC035
     FM210900 22010G20KT P6SM BKN050=



000
FTUS45 KBOI 201740
TAFBOI
TAF
KBOI 201740Z 2018/2118 13010KT P6SM -SHRA BKN025 OVC040
     FM202100 13012KT 5SM RA BR OVC015
     FM210500 13010KT P6SM -SHRA OVC030
     FM211500 VRB05KT P6SM VCSH OVC070=



000
FTUS45 KBOI 201740
TAFMYL
TAF
KMYL 201740Z 2018/2118 VRB03KT 2SM -SN BR SCT015 OVC020
     FM210600 14008KT 5SM -RA BR OVC005=



000
FTUS45 KBOI 201740
TAFJER
TAF
KJER 201740Z 2018/2118 VRB06KT P6SM -SHRA OVC015
     FM202100 21008KT P6SM VCSH OVC025
     FM210300 24010KT 6SM -RA OVC010
     FM211200 24011KT P6SM -SHRA OVC020=



000
FTUS45 KBOI 201740
TAFBKE
TAF
KBKE 201740Z 2018/2118 10010KT P6SM VCSH OVC050
     FM202100 11010KT P6SM -SHRA OVC030
     FM210900 VRB05KT P6SM VCSH OVC050=



000
FTUS45 KBOI 201740
TAFTWF
TAF
KTWF 201740Z 2018/2118 18010KT P6SM -SHRA OVC025
     FM202100 19010KT P6SM VCSH OVC030
     FM210300 22012KT 6SM -RA OVC025
     FM211200 22015G25KT P6SM -SHRA OVC030=



000
FTUS45 KBOI 201740
TAFBKE
TAF
KBKE 201740Z 2018/2118 10010KT P6SM VCSH OVC050
     FM202100 11010KT P6SM -SHRA OVC030
     FM210900 VRB05KT P6SM VCSH OVC050=



000
FTUS45 KBOI 201740
TAFJER
TAF
KJER 201740Z 2018/2118 VRB06KT P6SM -SHRA OVC015
     FM202100 21008KT P6SM VCSH OVC025
     FM210300 24010KT 6SM -RA OVC010
     FM211200 24011KT P6SM -SHRA OVC020=



000
FTUS45 KBOI 201740
TAFBOI
TAF
KBOI 201740Z 2018/2118 13010KT P6SM -SHRA BKN025 OVC040
     FM202100 13012KT 5SM RA BR OVC015
     FM210500 13010KT P6SM -SHRA OVC030
     FM211500 VRB05KT P6SM VCSH OVC070=



000
FTUS45 KBOI 201740
TAFMYL
TAF
KMYL 201740Z 2018/2118 VRB03KT 2SM -SN BR SCT015 OVC020
     FM210600 14008KT 5SM -RA BR OVC005=



000
FTUS45 KBOI 201740
TAFTWF
TAF
KTWF 201740Z 2018/2118 18010KT P6SM -SHRA OVC025
     FM202100 19010KT P6SM VCSH OVC030
     FM210300 22012KT 6SM -RA OVC025
     FM211200 22015G25KT P6SM -SHRA OVC030=



000
FTUS45 KBOI 201740
TAFBNO
TAF
KBNO 201740Z 2018/2118 VRB05KT P6SM VCSH OVC040
     FM202000 22010KT 6SM -SHRA BR SCT009 OVC015
     FM210300 VRB05KT P6SM VCSH OVC035
     FM210900 22010G20KT P6SM BKN050=



000
FTUS45 KBOI 201550 AAA
TAFBOI
TAF AMD
KBOI 201550Z 2016/2112 13010KT P6SM -SHRA BKN025 OVC040
     FM202100 13012KT 3SM -RA BR OVC025=



000
FTUS45 KBOI 201550 AAA
TAFBOI
TAF AMD
KBOI 201550Z 2016/2112 13010KT P6SM -SHRA BKN025 OVC040
     FM202100 13012KT 3SM -RA BR OVC025=



000
FTUS45 KBOI 201120
TAFBKE
TAF
KBKE 201120Z 2012/2112 VRB06KT P6SM VCSH OVC010
     FM201300 VRB06KT P6SM -SHRASN OVC035
     FM201500 12010KT 5SM -RA BR BKN025 OVC035
     FM202300 11010KT 2SM -RA BR OVC015=



000
FTUS45 KBOI 201120
TAFBOI
TAF
KBOI 201120Z 2012/2112 13008KT P6SM VCSH SCT030 OVC050
     FM201500 13010KT P6SM -SHRA SCT025 OVC040
     FM202100 13012KT 3SM -RA BR OVC025=



000
FTUS45 KBOI 201120
TAFBOI
TAF
KBOI 201120Z 2012/2112 13008KT P6SM VCSH SCT030 OVC050
     FM201500 13010KT P6SM -SHRA SCT025 OVC040
     FM202100 13012KT 3SM -RA BR OVC025=



000
FTUS45 KBOI 201120
TAFMYL
TAF
KMYL 201120Z 2012/2112 VRB03KT 2SM -SHSN BR SCT015 OVC020
      TEMPO 2017/2021 3SM -SHRASN SCT007 OVC015
     FM202100 14008KT 2SM RA BR OVC015
     FM210600 14008KT 2SM -RA BR OVC005=



000
FTUS45 KBOI 201120
TAFTWF
TAF
KTWF 201120Z 2012/2112 18010KT P6SM SCT030 OVC040
     FM202000 20008KT P6SM -SHRA SCT025 OVC050
     FM210300 19008KT 6SM -RA OVC025=



000
FTUS45 KBOI 201120
TAFJER
TAF
KJER 201120Z 2012/2112 VRB06KT P6SM SCT035 OVC040
     FM202200 06008KT P6SM -SHRA SCT025 OVC050
     FM210300 23008KT 6SM -RA OVC020=



000
FTUS45 KBOI 201120
TAFBNO
TAF
KBNO 201120Z 2012/2112 VRB03KT 6SM -SHRA BKN020 OVC030
     FM201300 VRB05KT 4SM -RA BR OVC020
     FM210100 22005KT P6SM -SHRA OVC025=



000
FTUS45 KBOI 201120
TAFMYL
TAF
KMYL 201120Z 2012/2112 VRB03KT 2SM -SHSN BR SCT015 OVC020
      TEMPO 2017/2021 3SM -SHRASN SCT007 OVC015
     FM202100 14008KT 2SM RA BR OVC015
     FM210600 14008KT 2SM -RA BR OVC005=



000
FTUS45 KBOI 201120
TAFBKE
TAF
KBKE 201120Z 2012/2112 VRB06KT P6SM VCSH OVC010
     FM201300 VRB06KT P6SM -SHRASN OVC035
     FM201500 12010KT 5SM -RA BR BKN025 OVC035
     FM202300 11010KT 2SM -RA BR OVC015=



000
FTUS45 KBOI 200534
TAFJER
TAF
KJER 200534Z 2006/2106 VRB06KT P6SM VCSH SCT035 OVC050
     FM202200 06008KT P6SM -SHRA SCT025 OVC050
     FM210300 23008KT 6SM -RA OVC020=



000
FTUS45 KBOI 200534
TAFBOI
TAF
KBOI 200534Z 2006/2106 12008KT P6SM BKN050 OVC070
     FM201200 13005KT P6SM VCSH OVC050
     FM201700 13010KT P6SM -SHRA SCT025 OVC040
     FM202300 13012KT 3SM -RA BR OVC025=



000
FTUS45 KBOI 200534
TAFTWF
TAF
KTWF 200534Z 2006/2106 18010KT P6SM BKN050 OVC080
     FM202200 20008KT P6SM -SHRA SCT025 OVC050
     FM210300 19008KT 6SM -RA OVC025=



000
FTUS45 KBOI 200534
TAFBKE
TAF
KBKE 200534Z 2006/2106 VRB06KT P6SM VCSH OVC010
     FM200900 VRB06KT P6SM -SHRASN OVC035
     FM201300 12010KT 5SM -RA BR BKN025 OVC035
     FM202200 11010KT 2SM -RA BR OVC015
     FM210200 12008KT 5SM -SHRA BR SCT015 OVC025=



000
FTUS45 KBOI 200534
TAFBNO
TAF
KBNO 200534Z 2006/2106 27005KT 6SM -SHRASN BR BKN020 OVC035
     FM200900 VRB03KT 6SM -SHRA BKN020 OVC030
     FM201300 VRB05KT 4SM -RA BR OVC020
     FM210100 22005KT P6SM -SHRA OVC025=



000
FTUS45 KBOI 200534
TAFMYL
TAF
KMYL 200534Z 2006/2106 VRB03KT 1/2SM FZFG OVC005
     FM201000 VRB03KT 2SM -SHSN BR BKN005 OVC015
      TEMPO 2017/2021 3SM -SHRASN SCT007 OVC015
     FM202100 14008KT 2SM RA BR OVC015=



000
FTUS45 KBOI 200534
TAFBOI
TAF
KBOI 200534Z 2006/2106 12008KT P6SM BKN050 OVC070
     FM201200 13005KT P6SM VCSH OVC050
     FM201700 13010KT P6SM -SHRA SCT025 OVC040
     FM202300 13012KT 3SM -RA BR OVC025=



000
FTUS45 KBOI 200534
TAFMYL
TAF
KMYL 200534Z 2006/2106 VRB03KT 1/2SM FZFG OVC005
     FM201000 VRB03KT 2SM -SHSN BR BKN005 OVC015
      TEMPO 2017/2021 3SM -SHRASN SCT007 OVC015
     FM202100 14008KT 2SM RA BR OVC015=



000
FTUS45 KBOI 200534
TAFBNO
TAF
KBNO 200534Z 2006/2106 27005KT 6SM -SHRASN BR BKN020 OVC035
     FM200900 VRB03KT 6SM -SHRA BKN020 OVC030
     FM201300 VRB05KT 4SM -RA BR OVC020
     FM210100 22005KT P6SM -SHRA OVC025=



000
FTUS45 KBOI 200534
TAFJER
TAF
KJER 200534Z 2006/2106 VRB06KT P6SM VCSH SCT035 OVC050
     FM202200 06008KT P6SM -SHRA SCT025 OVC050
     FM210300 23008KT 6SM -RA OVC020=



000
FTUS45 KBOI 200534
TAFTWF
TAF
KTWF 200534Z 2006/2106 18010KT P6SM BKN050 OVC080
     FM202200 20008KT P6SM -SHRA SCT025 OVC050
     FM210300 19008KT 6SM -RA OVC025=



000
FTUS45 KBOI 200534
TAFBKE
TAF
KBKE 200534Z 2006/2106 VRB06KT P6SM VCSH OVC010
     FM200900 VRB06KT P6SM -SHRASN OVC035
     FM201300 12010KT 5SM -RA BR BKN025 OVC035
     FM202200 11010KT 2SM -RA BR OVC015
     FM210200 12008KT 5SM -SHRA BR SCT015 OVC025=



000
FTUS45 KBOI 200258 AAA
TAFMYL
TAF AMD
KMYL 200258Z 2003/2024 VRB06KT P6SM VCSH OVC025
     FM200600 VRB03KT 1/2SM FZFG OVC005
     FM201000 VRB03KT 4SM -SHSN BR FEW005 OVC015
     FM202000 14008KT 2SM -SN BR OVC015 PROB30 2020/2024 -RASN=



000
FTUS45 KBOI 200258 AAA
TAFMYL
TAF AMD
KMYL 200258Z 2003/2024 VRB06KT P6SM VCSH OVC025
     FM200600 VRB03KT 1/2SM FZFG OVC005
     FM201000 VRB03KT 4SM -SHSN BR FEW005 OVC015
     FM202000 14008KT 2SM -SN BR OVC015 PROB30 2020/2024 -RASN=



000
FTUS45 KBOI 200056 AAA
TAFJER
TAF AMD
KJER 200056Z 2001/2024 12007KT P6SM -RA SCT025 OVC040
     FM200200 28008KT P6SM VCSH OVC050
     FM201400 09005KT P6SM BKN050
     FM202200 06008KT P6SM -SHRA SCT025 OVC050=



000
FTUS45 KBOI 200056 AAA
TAFJER
TAF AMD
KJER 200056Z 2001/2024 12007KT P6SM -RA SCT025 OVC040
     FM200200 28008KT P6SM VCSH OVC050
     FM201400 09005KT P6SM BKN050
     FM202200 06008KT P6SM -SHRA SCT025 OVC050=



000
FTUS45 KBOI 192330
TAFJER
TAF
KJER 192330Z 2000/2024 21007KT 5SM -RA BR BKN006 OVC030
     FM200200 28008KT P6SM VCSH OVC050
     FM201400 09005KT P6SM BKN050
     FM202200 06008KT P6SM -SHRA SCT025 OVC050=



000
FTUS45 KBOI 192330
TAFBOI
TAF
KBOI 192330Z 2000/2024 12008KT P6SM SCT040 BKN060 OVC100
     FM201200 13005KT P6SM VCSH OVC050
     FM201700 13010KT P6SM -SHRA SCT025 OVC040=



000
FTUS45 KBOI 192330
TAFBNO
TAF
KBNO 192330Z 2000/2024 25007KT P6SM VCSH SCT040 BKN080
     FM200200 27005KT P6SM SCT050 OVC100
     FM200900 VRB03KT P6SM VCSH OVC050
     FM201300 VRB05KT 4SM -RA BR OVC025=



000
FTUS45 KBOI 192330
TAFBKE
TAF
KBKE 192330Z 2000/2024 VRB06KT P6SM SCT025 OVC050
     FM201800 12010KT 5SM -RA BR BKN025 OVC040
     FM202200 11010KT 2SM -RA BR OVC015=



000
FTUS45 KBOI 192330
TAFMYL
TAF
KMYL 192330Z 2000/2024 16007KT 6SM -SHSN BR OVC025
     FM200600 VRB03KT 1/2SM FZFG OVC005
     FM201000 VRB03KT 4SM -SHSN BR FEW005 OVC015
     FM202000 14008KT 2SM -SN BR OVC015 PROB30 2020/2024 -RASN=



000
FTUS45 KBOI 192330
TAFTWF
TAF
KTWF 192330Z 2000/2024 20010KT 4SM -RA BR OVC025
     FM200200 21010KT P6SM VCSH OVC050
     FM201400 18007KT P6SM BKN050
     FM202200 20008KT P6SM -SHRA SCT025 OVC050=



000
FTUS45 KBOI 192330
TAFBKE
TAF
KBKE 192330Z 2000/2024 VRB06KT P6SM SCT025 OVC050
     FM201800 12010KT 5SM -RA BR BKN025 OVC040
     FM202200 11010KT 2SM -RA BR OVC015=



000
FTUS45 KBOI 192330
TAFBOI
TAF
KBOI 192330Z 2000/2024 12008KT P6SM SCT040 BKN060 OVC100
     FM201200 13005KT P6SM VCSH OVC050
     FM201700 13010KT P6SM -SHRA SCT025 OVC040=



000
FTUS45 KBOI 192330
TAFMYL
TAF
KMYL 192330Z 2000/2024 16007KT 6SM -SHSN BR OVC025
     FM200600 VRB03KT 1/2SM FZFG OVC005
     FM201000 VRB03KT 4SM -SHSN BR FEW005 OVC015
     FM202000 14008KT 2SM -SN BR OVC015 PROB30 2020/2024 -RASN=



000
FTUS45 KBOI 192330
TAFTWF
TAF
KTWF 192330Z 2000/2024 20010KT 4SM -RA BR OVC025
     FM200200 21010KT P6SM VCSH OVC050
     FM201400 18007KT P6SM BKN050
     FM202200 20008KT P6SM -SHRA SCT025 OVC050=



000
FTUS45 KBOI 192330
TAFBNO
TAF
KBNO 192330Z 2000/2024 25007KT P6SM VCSH SCT040 BKN080
     FM200200 27005KT P6SM SCT050 OVC100
     FM200900 VRB03KT P6SM VCSH OVC050
     FM201300 VRB05KT 4SM -RA BR OVC025=



000
FTUS45 KBOI 192330
TAFJER
TAF
KJER 192330Z 2000/2024 21007KT 5SM -RA BR BKN006 OVC030
     FM200200 28008KT P6SM VCSH OVC050
     FM201400 09005KT P6SM BKN050
     FM202200 06008KT P6SM -SHRA SCT025 OVC050=



000
FTUS45 KBOI 192222 AAC
TAFJER
TAF AMD
KJER 192222Z 1922/2018 21007KT 5SM -RA BR BKN006 OVC030
     FM200200 28008KT P6SM VCSH OVC050
     FM201400 09005KT P6SM SCT050=



000
FTUS45 KBOI 192222 AAC
TAFJER
TAF AMD
KJER 192222Z 1922/2018 21007KT 5SM -RA BR BKN006 OVC030
     FM200200 28008KT P6SM VCSH OVC050
     FM201400 09005KT P6SM SCT050=



000
FTUS45 KBOI 192157 AAB
TAFBOI
TAF AMD
KBOI 192157Z 1922/2018 12015G25KT P6SM -RA OVC050
     FM200000 12008KT P6SM VCSH SCT050 OVC100
     FM201200 13005KT P6SM VCSH OVC050=



000
FTUS45 KBOI 192157 AAB
TAFBOI
TAF AMD
KBOI 192157Z 1922/2018 12015G25KT P6SM -RA OVC050
     FM200000 12008KT P6SM VCSH SCT050 OVC100
     FM201200 13005KT P6SM VCSH OVC050=



000
FTUS45 KBOI 192156 AAA
TAFTWF
TAF AMD
KTWF 192156Z 1922/2018 19010KT 4SM -RA BR OVC025
     FM200200 21010KT P6SM VCSH OVC050
     FM201400 18007KT P6SM SCT050=



000
FTUS45 KBOI 192156 AAA
TAFTWF
TAF AMD
KTWF 192156Z 1922/2018 19010KT 4SM -RA BR OVC025
     FM200200 21010KT P6SM VCSH OVC050
     FM201400 18007KT P6SM SCT050=



000
FTUS45 KBOI 192155 AAB
TAFJER
TAF AMD
KJER 192155Z 1922/2018 20008KT 5SM -RA BR FEW008 OVC015
     FM200200 28008KT P6SM VCSH OVC050
     FM201400 09005KT P6SM SCT050=



000
FTUS45 KBOI 192155 AAB
TAFJER
TAF AMD
KJER 192155Z 1922/2018 20008KT 5SM -RA BR FEW008 OVC015
     FM200200 28008KT P6SM VCSH OVC050
     FM201400 09005KT P6SM SCT050=



000
FTUS45 KBOI 192154 AAB
TAFMYL
TAF AMD
KMYL 192154Z 1922/2018 16010KT 3SM -SN SCT005 OVC025
     FM200000 16007KT 3SM BR SCT008 BKN025
     FM200600 VRB03KT 1/2SM FZFG OVC005
     FM201000 VRB03KT 1SM -SN BR FEW005 OVC015=



000
FTUS45 KBOI 192154 AAB
TAFMYL
TAF AMD
KMYL 192154Z 1922/2018 16010KT 3SM -SN SCT005 OVC025
     FM200000 16007KT 3SM BR SCT008 BKN025
     FM200600 VRB03KT 1/2SM FZFG OVC005
     FM201000 VRB03KT 1SM -SN BR FEW005 OVC015=



000
FTUS45 KBOI 191956 AAB
TAFBOI
TAF AMD
KBOI 191956Z 1920/2018 14012KT P6SM -RA OVC050
     FM200000 12008KT P6SM VCSH SCT050 OVC100
     FM201200 13005KT P6SM VCSH OVC050=



000
FTUS45 KBOI 191956 AAB
TAFBOI
TAF AMD
KBOI 191956Z 1920/2018 14012KT P6SM -RA OVC050
     FM200000 12008KT P6SM VCSH SCT050 OVC100
     FM201200 13005KT P6SM VCSH OVC050=



000
FTUS45 KBOI 191956 AAB
TAFBOI
TAF AMD
KBOI 191956Z 1920/2018 14012KT P6SM -RA OVC050
     FM200000 12008KT P6SM VCSH SCT050 OVC100
     FM201200 13005KT P6SM VCSH OVC050=



000
FTUS45 KBOI 191956 AAB
TAFBOI
TAF AMD
KBOI 191956Z 1920/2018 14012KT P6SM -RA OVC050
     FM200000 12008KT P6SM VCSH SCT050 OVC100
     FM201200 13005KT P6SM VCSH OVC050=



000
FTUS45 KBOI 191955 AAA
TAFJER
TAF AMD
KJER 191955Z 1920/2018 VRB05KT P6SM -RA BKN025 OVC040
     FM192100 02008KT P6SM -SHRA SCT025 OVC040
     FM200200 28008KT P6SM VCSH OVC050
     FM201400 09005KT P6SM SCT050=



000
FTUS45 KBOI 191955 AAA
TAFJER
TAF AMD
KJER 191955Z 1920/2018 VRB05KT P6SM -RA BKN025 OVC040
     FM192100 02008KT P6SM -SHRA SCT025 OVC040
     FM200200 28008KT P6SM VCSH OVC050
     FM201400 09005KT P6SM SCT050=



000
FTUS45 KBOI 191955 AAA
TAFJER
TAF AMD
KJER 191955Z 1920/2018 VRB05KT P6SM -RA BKN025 OVC040
     FM192100 02008KT P6SM -SHRA SCT025 OVC040
     FM200200 28008KT P6SM VCSH OVC050
     FM201400 09005KT P6SM SCT050=



000
FTUS45 KBOI 191955 AAA
TAFJER
TAF AMD
KJER 191955Z 1920/2018 VRB05KT P6SM -RA BKN025 OVC040
     FM192100 02008KT P6SM -SHRA SCT025 OVC040
     FM200200 28008KT P6SM VCSH OVC050
     FM201400 09005KT P6SM SCT050=



000
FTUS45 KBOI 191954 AAA
TAFMYL
TAF AMD
KMYL 191954Z 1920/2018 15008KT 1SM -SN BR OVC004
     FM192200 16010KT 3SM -SHSN SCT005 OVC015
     FM200000 16007KT 3SM BR SCT008 OVC015
     FM200600 VRB03KT 1/2SM FZFG OVC005
     FM201000 VRB03KT 1SM -SN BR FEW005 OVC015=



000
FTUS45 KBOI 191954 AAA
TAFMYL
TAF AMD
KMYL 191954Z 1920/2018 15008KT 1SM -SN BR OVC004
     FM192200 16010KT 3SM -SHSN SCT005 OVC015
     FM200000 16007KT 3SM BR SCT008 OVC015
     FM200600 VRB03KT 1/2SM FZFG OVC005
     FM201000 VRB03KT 1SM -SN BR FEW005 OVC015=



000
FTUS45 KBOI 191954 AAA
TAFMYL
TAF AMD
KMYL 191954Z 1920/2018 15008KT 1SM -SN BR OVC004
     FM192200 16010KT 3SM -SHSN SCT005 OVC015
     FM200000 16007KT 3SM BR SCT008 OVC015
     FM200600 VRB03KT 1/2SM FZFG OVC005
     FM201000 VRB03KT 1SM -SN BR FEW005 OVC015=



000
FTUS45 KBOI 191954 AAA
TAFMYL
TAF AMD
KMYL 191954Z 1920/2018 15008KT 1SM -SN BR OVC004
     FM192200 16010KT 3SM -SHSN SCT005 OVC015
     FM200000 16007KT 3SM BR SCT008 OVC015
     FM200600 VRB03KT 1/2SM FZFG OVC005
     FM201000 VRB03KT 1SM -SN BR FEW005 OVC015=



000
FTUS45 KBOI 191739
TAFBNO
TAF
KBNO 191739Z 1918/2018 01005KT P6SM FEW025 OVC040
     FM192100 25007KT P6SM VCSH SCT040 BKN060
     FM200200 27005KT P6SM SCT050 OVC100
     FM200900 VRB03KT P6SM VCSH OVC050
     FM201300 VRB05KT 4SM -SN BR OVC025=



000
FTUS45 KBOI 191739
TAFTWF
TAF
KTWF 191739Z 1918/2018 17012KT P6SM FEW050 OVC080
     FM192100 19010KT P6SM -SHRA SCT025 OVC040
     FM200200 21010KT P6SM VCSH OVC050
     FM201400 18007KT P6SM SCT050=



000
FTUS45 KBOI 191739
TAFBKE
TAF
KBKE 191739Z 1918/2018 10012KT P6SM -RA OVC040
     FM192100 08010KT P6SM VCSH BKN040 OVC060
     FM200000 VRB06KT P6SM SCT035 OVC050
     FM201200 12010KT 5SM -RASN BR BKN025 OVC040=



000
FTUS45 KBOI 191739
TAFJER
TAF
KJER 191739Z 1918/2018 11005KT P6SM OVC050
     FM192100 02008KT P6SM -SHRA SCT025 OVC040
     FM200200 28008KT P6SM VCSH OVC050
     FM201400 09005KT P6SM SCT050=



000
FTUS45 KBOI 191739
TAFBOI
TAF
KBOI 191739Z 1918/2018 15015G25KT 6SM -RA BR OVC040
     FM192000 13012KT P6SM -SHRA BKN050 OVC080
     FM200000 12008KT P6SM VCSH SCT050 OVC100
     FM201200 13005KT P6SM VCSH OVC050=



000
FTUS45 KBOI 191739
TAFMYL
TAF
KMYL 191739Z 1918/2018 16012KT 2SM -SN OVC015
     FM192100 16010KT 3SM -SHSN SCT008 OVC015
     FM200000 16007KT 3SM BR SCT008 OVC015
     FM200600 VRB03KT 1/2SM FZFG OVC005
     FM201000 VRB03KT 1SM -SN BR FEW005 OVC015=



000
FTUS45 KBOI 191739
TAFMYL
TAF
KMYL 191739Z 1918/2018 16012KT 2SM -SN OVC015
     FM192100 16010KT 3SM -SHSN SCT008 OVC015
     FM200000 16007KT 3SM BR SCT008 OVC015
     FM200600 VRB03KT 1/2SM FZFG OVC005
     FM201000 VRB03KT 1SM -SN BR FEW005 OVC015=



000
FTUS45 KBOI 191739
TAFBNO
TAF
KBNO 191739Z 1918/2018 01005KT P6SM FEW025 OVC040
     FM192100 25007KT P6SM VCSH SCT040 BKN060
     FM200200 27005KT P6SM SCT050 OVC100
     FM200900 VRB03KT P6SM VCSH OVC050
     FM201300 VRB05KT 4SM -SN BR OVC025=



000
FTUS45 KBOI 191739
TAFBOI
TAF
KBOI 191739Z 1918/2018 15015G25KT 6SM -RA BR OVC040
     FM192000 13012KT P6SM -SHRA BKN050 OVC080
     FM200000 12008KT P6SM VCSH SCT050 OVC100
     FM201200 13005KT P6SM VCSH OVC050=



000
FTUS45 KBOI 191739
TAFJER
TAF
KJER 191739Z 1918/2018 11005KT P6SM OVC050
     FM192100 02008KT P6SM -SHRA SCT025 OVC040
     FM200200 28008KT P6SM VCSH OVC050
     FM201400 09005KT P6SM SCT050=



000
FTUS45 KBOI 191739
TAFTWF
TAF
KTWF 191739Z 1918/2018 17012KT P6SM FEW050 OVC080
     FM192100 19010KT P6SM -SHRA SCT025 OVC040
     FM200200 21010KT P6SM VCSH OVC050
     FM201400 18007KT P6SM SCT050=



000
FTUS45 KBOI 191739
TAFBKE
TAF
KBKE 191739Z 1918/2018 10012KT P6SM -RA OVC040
     FM192100 08010KT P6SM VCSH BKN040 OVC060
     FM200000 VRB06KT P6SM SCT035 OVC050
     FM201200 12010KT 5SM -RASN BR BKN025 OVC040=



000
FTUS45 KBOI 191612 AAA
TAFTWF
TAF AMD
KTWF 191612Z 1916/2012 18015G22KT P6SM OVC070
     FM192100 20008KT P6SM -SHRA SCT025 OVC040
     FM200200 21008KT P6SM VCSH SCT025 OVC050
     FM200900 16008KT P6SM OVC050=



000
FTUS45 KBOI 191539 CCA
TAFBNO
TAF COR
KBNO 191539Z 1916/2012 VRB03KT P6SM -SHRA BKN025 OVC040
     FM191900 20005KT P6SM VCSH SCT040 BKN060
     FM200200 VRB03KT P6SM OVC100
     FM201100 VRB03KT P6SM SCT020 OVC035=



000
FTUS45 KBOI 191539 CCA
TAFBNO
TAF COR
KBNO 191539Z 1916/2012 VRB03KT P6SM -SHRA BKN025 OVC040
     FM191900 20005KT P6SM VCSH SCT040 BKN060
     FM200200 VRB03KT P6SM OVC100
     FM201100 VRB03KT P6SM SCT020 OVC035=



000
FTUS45 KBOI 191538 AAB
TAFMYL
TAF AMD
KMYL 191538Z 1916/2012 15006KT P6SM -SHSN BKN025 OVC050
     FM192100 VRB04KT 3SM -SHSN SCT008 OVC015
     FM200100 VRB03KT 3SM BR SCT008 OVC015
     FM200600 VRB03KT 1/2SM FZFG OVC005=



000
FTUS45 KBOI 191538 AAB
TAFMYL
TAF AMD
KMYL 191538Z 1916/2012 15006KT P6SM -SHSN BKN025 OVC050
     FM192100 VRB04KT 3SM -SHSN SCT008 OVC015
     FM200100 VRB03KT 3SM BR SCT008 OVC015
     FM200600 VRB03KT 1/2SM FZFG OVC005=



000
FTUS45 KBOI 191537 AAA
TAFBNO
TAF AMD
KBNO 191537Z 1916/2012 VRB03KT P6SM -SHRA BKN035 OVC060
     FM191900 20005KT P6SM VCSH SCT040 BKN060
     FM200200 VRB03KT P6SM OVC100
     FM201100 VRB03KT P6SM SCT020 OVC035=



000
FTUS45 KBOI 191537 AAA
TAFBNO
TAF AMD
KBNO 191537Z 1916/2012 VRB03KT P6SM -SHRA BKN035 OVC060
     FM191900 20005KT P6SM VCSH SCT040 BKN060
     FM200200 VRB03KT P6SM OVC100
     FM201100 VRB03KT P6SM SCT020 OVC035=



000
FTUS45 KBOI 191153 AAA
TAFMYL
TAF AMD
KMYL 191153Z 1912/2012 15005KT 2SM -SN OVC004
      TEMPO 1912/1914 P6SM SCT004 OVC010
     FM192100 VRB04KT 3SM -SHSN SCT008 OVC015
     FM200100 VRB03KT 3SM BR SCT008 OVC015
     FM200600 VRB03KT 1/2SM FZFG OVC005=



000
FTUS45 KBOI 191153 AAA
TAFMYL
TAF AMD
KMYL 191153Z 1912/2012 15005KT 2SM -SN OVC004
      TEMPO 1912/1914 P6SM SCT004 OVC010
     FM192100 VRB04KT 3SM -SHSN SCT008 OVC015
     FM200100 VRB03KT 3SM BR SCT008 OVC015
     FM200600 VRB03KT 1/2SM FZFG OVC005=



000
FTUS45 KBOI 191120
TAFBKE
TAF
KBKE 191120Z 1912/2012 10010KT P6SM -SHRA OVC040
     FM191200 12010KT 5SM -RA BR OVC025
     FM192000 12008KT P6SM VCSH OVC035
     FM200000 VRB06KT P6SM SCT035 OVC050
     FM201100 11008KT P6SM VCSH SCT025 OVC040=



000
FTUS45 KBOI 191120
TAFTWF
TAF
KTWF 191120Z 1912/2012 16007KT P6SM OVC070
     FM192100 20008KT P6SM -SHRA SCT025 OVC040
     FM200200 21008KT P6SM VCSH SCT025 OVC050
     FM200900 16008KT P6SM OVC050=



000
FTUS45 KBOI 191120
TAFJER
TAF
KJER 191120Z 1912/2012 05011KT P6SM OVC060
     FM192100 03008KT P6SM -SHRA SCT025 OVC040
     FM200200 24008KT P6SM VCSH SCT025 OVC050
     FM200600 05008KT P6SM OVC050=



000
FTUS45 KBOI 191120
TAFMYL
TAF
KMYL 191120Z 1912/2012 15005KT 1/2SM SN FZFG OVC004
     FM192100 VRB04KT 3SM -SHSN SCT008 OVC015
     FM200100 VRB03KT 3SM BR SCT008 OVC015
     FM200600 VRB03KT 1/2SM FZFG OVC005=



000
FTUS45 KBOI 191120
TAFBNO
TAF
KBNO 191120Z 1912/2012 VRB05KT 3SM -SN BR OVC010
     FM191600 VRB03KT P6SM VCSH BKN035 OVC050
     FM200200 VRB03KT P6SM OVC100
     FM201100 VRB03KT P6SM SCT020 OVC035=



000
FTUS45 KBOI 191120
TAFBOI
TAF
KBOI 191120Z 1912/2012 12010KT P6SM VCSH BKN070 OVC100
     FM191500 13012KT 6SM -RA BR OVC025
     FM192300 13008KT P6SM VCSH SCT025 OVC050=



000
FTUS45 KBOI 190525 CCA
TAFBKE
TAF COR
KBKE 190525Z 1906/2006 10010KT P6SM -SHRA OVC040
     FM191200 12010KT 5SM -RA BR OVC025
     FM192000 12008KT P6SM VCSH OVC035
     FM200000 VRB06KT P6SM SCT035 OVC050=



000
FTUS45 KBOI 190525 CCA
TAFBKE
TAF COR
KBKE 190525Z 1906/2006 10010KT P6SM -SHRA OVC040
     FM191200 12010KT 5SM -RA BR OVC025
     FM192000 12008KT P6SM VCSH OVC035
     FM200000 VRB06KT P6SM SCT035 OVC050=



000
FTUS45 KBOI 190524
TAFBOI
TAF
KBOI 190524Z 1906/2006 15010KT P6SM VCSH BKN060 OVC100
     FM191000 13010KT P6SM -SHRA BKN035 OVC050
     FM191600 13012KT 6SM -RA BR OVC025
     FM192100 13008KT P6SM VCSH SCT025 OVC050=



000
FTUS45 KBOI 190524
TAFBNO
TAF
KBNO 190524Z 1906/2006 VRB06KT P6SM VCSH SCT040 OVC060
      TEMPO 1906/1909 4SM -SHRASN BR OVC030
     FM190900 VRB05KT 3SM -SN BR OVC025
     FM191600 VRB03KT P6SM VCSH BKN035 OVC050
     FM200200 VRB03KT P6SM OVC100=



000
FTUS45 KBOI 190524
TAFMYL
TAF
KMYL 190524Z 1906/2006 VRB06KT P6SM VCSH OVC025
      TEMPO 1906/1908 4SM -SHSN BR OVC015
     FM190800 14008KT 3SM -SHSN BR SCT005 OVC015
     FM191200 15005KT 1/2SM SN FZFG OVC008
     FM192100 VRB04KT 3SM -SHSN SCT008 OVC015
     FM200100 VRB03KT 3SM BR OVC020=



000
FTUS45 KBOI 190524
TAFTWF
TAF
KTWF 190524Z 1906/2006 16007KT P6SM OVC070
     FM191500 14007KT P6SM OVC050
     FM192100 20008KT P6SM -SHRA SCT025 OVC040
     FM200200 21008KT P6SM VCSH SCT025 OVC050=



000
FTUS45 KBOI 190524
TAFJER
TAF
KJER 190524Z 1906/2006 05007KT P6SM OVC060
     FM191500 05012KT P6SM OVC080
     FM192100 03008KT P6SM -SHRA SCT025 OVC040
     FM200200 24008KT P6SM VCSH SCT025 OVC050=



000
FTUS45 KBOI 190524
TAFBKE
TAF
KBKE 190524Z 1906/2006 12010KT 5SM -SHRA BR OVC040
     FM191200 12010KT 5SM -RA BR OVC025
     FM192000 12008KT P6SM VCSH OVC035
     FM200000 VRB06KT P6SM SCT035 OVC050=



000
FTUS45 KBOI 190524
TAFBNO
TAF
KBNO 190524Z 1906/2006 VRB06KT P6SM VCSH SCT040 OVC060
      TEMPO 1906/1909 4SM -SHRASN BR OVC030
     FM190900 VRB05KT 3SM -SN BR OVC025
     FM191600 VRB03KT P6SM VCSH BKN035 OVC050
     FM200200 VRB03KT P6SM OVC100=



000
FTUS45 KBOI 190524
TAFBKE
TAF
KBKE 190524Z 1906/2006 12010KT 5SM -SHRA BR OVC040
     FM191200 12010KT 5SM -RA BR OVC025
     FM192000 12008KT P6SM VCSH OVC035
     FM200000 VRB06KT P6SM SCT035 OVC050=



000
FTUS45 KBOI 190524
TAFBOI
TAF
KBOI 190524Z 1906/2006 15010KT P6SM VCSH BKN060 OVC100
     FM191000 13010KT P6SM -SHRA BKN035 OVC050
     FM191600 13012KT 6SM -RA BR OVC025
     FM192100 13008KT P6SM VCSH SCT025 OVC050=



000
FTUS45 KBOI 190524
TAFTWF
TAF
KTWF 190524Z 1906/2006 16007KT P6SM OVC070
     FM191500 14007KT P6SM OVC050
     FM192100 20008KT P6SM -SHRA SCT025 OVC040
     FM200200 21008KT P6SM VCSH SCT025 OVC050=



000
FTUS45 KBOI 190524
TAFJER
TAF
KJER 190524Z 1906/2006 05007KT P6SM OVC060
     FM191500 05012KT P6SM OVC080
     FM192100 03008KT P6SM -SHRA SCT025 OVC040
     FM200200 24008KT P6SM VCSH SCT025 OVC050=



000
FTUS45 KBOI 190524
TAFMYL
TAF
KMYL 190524Z 1906/2006 VRB06KT P6SM VCSH OVC025
      TEMPO 1906/1908 4SM -SHSN BR OVC015
     FM190800 14008KT 3SM -SHSN BR SCT005 OVC015
     FM191200 15005KT 1/2SM SN FZFG OVC008
     FM192100 VRB04KT 3SM -SHSN SCT008 OVC015
     FM200100 VRB03KT 3SM BR OVC020=



000
FTUS45 KBOI 190405 AAA
TAFBKE
TAF AMD
KBKE 190405Z 1904/1924 11011KT P6SM -SHRA SCT060 OVC080
     FM190600 12010KT 5SM -SHSNRA BR OVC040
     FM191200 12010KT 5SM -SNRA BR OVC025
     FM192300 30010KT P6SM VCSH OVC035=



000
FTUS45 KBOI 190405 AAA
TAFBKE
TAF AMD
KBKE 190405Z 1904/1924 11011KT P6SM -SHRA SCT060 OVC080
     FM190600 12010KT 5SM -SHSNRA BR OVC040
     FM191200 12010KT 5SM -SNRA BR OVC025
     FM192300 30010KT P6SM VCSH OVC035=



000
FTUS45 KBOI 190405 AAA
TAFBKE
TAF AMD
KBKE 190405Z 1904/1924 11011KT P6SM -SHRA SCT060 OVC080
     FM190600 12010KT 5SM -SHSNRA BR OVC040
     FM191200 12010KT 5SM -SNRA BR OVC025
     FM192300 30010KT P6SM VCSH OVC035=



000
FTUS45 KBOI 190405 AAA
TAFBKE
TAF AMD
KBKE 190405Z 1904/1924 11011KT P6SM -SHRA SCT060 OVC080
     FM190600 12010KT 5SM -SHSNRA BR OVC040
     FM191200 12010KT 5SM -SNRA BR OVC025
     FM192300 30010KT P6SM VCSH OVC035=



000
FTUS45 KBOI 190404 AAB
TAFMYL
TAF AMD
KMYL 190404Z 1904/1924 VRB06KT P6SM VCSH OVC025
      TEMPO 1904/1908 4SM -SHSN BR OVC015
     FM190800 14008KT 3SM -SN BR SCT005 OVC015
     FM191200 15005KT 1/2SM SN FZFG OVC008=



000
FTUS45 KBOI 190404 AAB
TAFMYL
TAF AMD
KMYL 190404Z 1904/1924 VRB06KT P6SM VCSH OVC025
      TEMPO 1904/1908 4SM -SHSN BR OVC015
     FM190800 14008KT 3SM -SN BR SCT005 OVC015
     FM191200 15005KT 1/2SM SN FZFG OVC008=



000
FTUS45 KBOI 190404 AAB
TAFMYL
TAF AMD
KMYL 190404Z 1904/1924 VRB06KT P6SM VCSH OVC025
      TEMPO 1904/1908 4SM -SHSN BR OVC015
     FM190800 14008KT 3SM -SN BR SCT005 OVC015
     FM191200 15005KT 1/2SM SN FZFG OVC008=



000
FTUS45 KBOI 190404 AAB
TAFMYL
TAF AMD
KMYL 190404Z 1904/1924 VRB06KT P6SM VCSH OVC025
      TEMPO 1904/1908 4SM -SHSN BR OVC015
     FM190800 14008KT 3SM -SN BR SCT005 OVC015
     FM191200 15005KT 1/2SM SN FZFG OVC008=



000
FTUS45 KBOI 190400 AAA
TAFBNO
TAF AMD
KBNO 190400Z 1904/1924 VRB06KT P6SM VCSH SCT040 OVC060
      TEMPO 1904/1907 4SM -SHRASN BR OVC040
     FM190700 VRB05KT 3SM -SN BR OVC030
     FM191600 VRB03KT P6SM VCSH BKN035 BKN080=



000
FTUS45 KBOI 190400 AAA
TAFBNO
TAF AMD
KBNO 190400Z 1904/1924 VRB06KT P6SM VCSH SCT040 OVC060
      TEMPO 1904/1907 4SM -SHRASN BR OVC040
     FM190700 VRB05KT 3SM -SN BR OVC030
     FM191600 VRB03KT P6SM VCSH BKN035 BKN080=



000
FTUS45 KBOI 190400 AAA
TAFBNO
TAF AMD
KBNO 190400Z 1904/1924 VRB06KT P6SM VCSH SCT040 OVC060
      TEMPO 1904/1907 4SM -SHRASN BR OVC040
     FM190700 VRB05KT 3SM -SN BR OVC030
     FM191600 VRB03KT P6SM VCSH BKN035 BKN080=



000
FTUS45 KBOI 190400 AAA
TAFBNO
TAF AMD
KBNO 190400Z 1904/1924 VRB06KT P6SM VCSH SCT040 OVC060
      TEMPO 1904/1907 4SM -SHRASN BR OVC040
     FM190700 VRB05KT 3SM -SN BR OVC030
     FM191600 VRB03KT P6SM VCSH BKN035 BKN080=



000
FTUS45 KBOI 190204 AAA
TAFMYL
TAF AMD
KMYL 190204Z 1902/1924 16007KT P6SM VCSH SCT020 OVC035
      TEMPO 1902/1905 4SM -SN BR BKN015
     FM190800 14008KT 3SM -SN BR SCT005 OVC015
     FM191200 15005KT 1/2SM SN FZFG OVC008=



000
FTUS45 KBOI 190204 AAA
TAFMYL
TAF AMD
KMYL 190204Z 1902/1924 16007KT P6SM VCSH SCT020 OVC035
      TEMPO 1902/1905 4SM -SN BR BKN015
     FM190800 14008KT 3SM -SN BR SCT005 OVC015
     FM191200 15005KT 1/2SM SN FZFG OVC008=



000
FTUS45 KBOI 182332
TAFJER
TAF
KJER 182332Z 1900/1924 05007KT P6SM OVC060
     FM191500 05012KT P6SM OVC080
     FM192100 03008KT P6SM -SHRA OVC040=



000
FTUS45 KBOI 182332
TAFBNO
TAF
KBNO 182332Z 1900/1924 VRB03KT P6SM OVC040
     FM190300 31010KT 5SM -SHSN BR OVC040
     FM190700 VRB05KT 3SM -SN BR OVC030
     FM191600 VRB03KT P6SM VCSH BKN035 BKN080=



000
FTUS45 KBOI 182332
TAFTWF
TAF
KTWF 182332Z 1900/1924 16007KT P6SM FEW040 OVC060
     FM191500 14007KT P6SM BKN080
     FM192100 20008KT P6SM -SHRA OVC040=



000
FTUS45 KBOI 182332
TAFBKE
TAF
KBKE 182332Z 1900/1924 11011KT P6SM SCT060 OVC080
     FM190600 12010KT 5SM -SHSNRA BR OVC040
     FM191200 12010KT 5SM -SNRA BR OVC025
     FM192300 30010KT P6SM VCSH OVC035=



000
FTUS45 KBOI 182332
TAFMYL
TAF
KMYL 182332Z 1900/1924 16007KT P6SM VCSH SCT010 BKN015
     FM190800 14008KT 3SM -SN BR SCT005 OVC015
     FM191200 15005KT 1/2SM SN FZFG OVC008=



000
FTUS45 KBOI 182332
TAFBOI
TAF
KBOI 182332Z 1900/1924 15010KT P6SM OVC060
     FM191000 13010KT P6SM -SHRA BKN050 OVC080
     FM191600 13012KT P6SM -RA OVC040=



000
FTUS45 KBOI 182332
TAFJER
TAF
KJER 182332Z 1900/1924 05007KT P6SM OVC060
     FM191500 05012KT P6SM OVC080
     FM192100 03008KT P6SM -SHRA OVC040=



000
FTUS45 KBOI 182332
TAFBOI
TAF
KBOI 182332Z 1900/1924 15010KT P6SM OVC060
     FM191000 13010KT P6SM -SHRA BKN050 OVC080
     FM191600 13012KT P6SM -RA OVC040=



000
FTUS45 KBOI 182332
TAFBNO
TAF
KBNO 182332Z 1900/1924 VRB03KT P6SM OVC040
     FM190300 31010KT 5SM -SHSN BR OVC040
     FM190700 VRB05KT 3SM -SN BR OVC030
     FM191600 VRB03KT P6SM VCSH BKN035 BKN080=



000
FTUS45 KBOI 182332
TAFTWF
TAF
KTWF 182332Z 1900/1924 16007KT P6SM FEW040 OVC060
     FM191500 14007KT P6SM BKN080
     FM192100 20008KT P6SM -SHRA OVC040=



000
FTUS45 KBOI 182332
TAFBKE
TAF
KBKE 182332Z 1900/1924 11011KT P6SM SCT060 OVC080
     FM190600 12010KT 5SM -SHSNRA BR OVC040
     FM191200 12010KT 5SM -SNRA BR OVC025
     FM192300 30010KT P6SM VCSH OVC035=



000
FTUS45 KBOI 182332
TAFMYL
TAF
KMYL 182332Z 1900/1924 16007KT P6SM VCSH SCT010 BKN015
     FM190800 14008KT 3SM -SN BR SCT005 OVC015
     FM191200 15005KT 1/2SM SN FZFG OVC008=



000
FTUS45 KBOI 181736
TAFBNO
TAF
KBNO 181736Z 1818/1918 VRB03KT P6SM OVC040
     FM190600 31010KT 5SM -SHSN BR OVC040
     FM191200 VRB05KT 3SM -SN BR OVC030=



000
FTUS45 KBOI 181736
TAFBOI
TAF
KBOI 181736Z 1818/1918 12010KT P6SM OVC090
     FM191000 13010KT P6SM -SHRA BKN050 OVC080
     FM191600 13012KT P6SM -RA OVC040=



000
FTUS45 KBOI 181736
TAFMYL
TAF
KMYL 181736Z 1818/1918 16007KT P6SM SCT015 BKN025
      TEMPO 1818/1822 2SM -SN BR OVC015
     FM191400 15005KT 1SM -SN BR OVC010=



000
FTUS45 KBOI 181736
TAFBKE
TAF
KBKE 181736Z 1818/1918 11007KT P6SM SCT060 OVC100
     FM190600 12010KT 5SM -SHSN BR OVC040
     FM191200 12015KT 4SM -SNRA BR OVC025=



000
FTUS45 KBOI 181736
TAFJER
TAF
KJER 181736Z 1818/1918 07007KT P6SM OVC060
     FM191500 05012KT P6SM OVC080=



000
FTUS45 KBOI 181736
TAFTWF
TAF
KTWF 181736Z 1818/1918 18007KT P6SM FEW040 OVC060
     FM191500 14007KT P6SM BKN080=



000
FTUS45 KBOI 181736
TAFMYL
TAF
KMYL 181736Z 1818/1918 16007KT P6SM SCT015 BKN025
      TEMPO 1818/1822 2SM -SN BR OVC015
     FM191400 15005KT 1SM -SN BR OVC010=



000
FTUS45 KBOI 181736
TAFBOI
TAF
KBOI 181736Z 1818/1918 12010KT P6SM OVC090
     FM191000 13010KT P6SM -SHRA BKN050 OVC080
     FM191600 13012KT P6SM -RA OVC040=



000
FTUS45 KBOI 181736
TAFBKE
TAF
KBKE 181736Z 1818/1918 11007KT P6SM SCT060 OVC100
     FM190600 12010KT 5SM -SHSN BR OVC040
     FM191200 12015KT 4SM -SNRA BR OVC025=



000
FTUS45 KBOI 181736
TAFTWF
TAF
KTWF 181736Z 1818/1918 18007KT P6SM FEW040 OVC060
     FM191500 14007KT P6SM BKN080=



000
FTUS45 KBOI 181736
TAFBNO
TAF
KBNO 181736Z 1818/1918 VRB03KT P6SM OVC040
     FM190600 31010KT 5SM -SHSN BR OVC040
     FM191200 VRB05KT 3SM -SN BR OVC030=



000
FTUS45 KBOI 181736
TAFJER
TAF
KJER 181736Z 1818/1918 07007KT P6SM OVC060
     FM191500 05012KT P6SM OVC080=



    US Dept of Commerce
    National Oceanic and Atmospheric Administration
    National Weather Service
    1325 East West Highway
    Silver Spring, MD 20910
    Page Author: NWS Internet Services Team
Disclaimer
Information Quality
Credits
Glossary
Privacy Policy
Freedom of Information Act (FOIA)
About Us
Career Opportunities